Hilton Head Island, South Carolina
Current Conditions -  °F | °C
As of 8:50 AM on Friday 24 Oct 2014 (Local Time) from KHXD Reporting Station
Broken Clouds Broken Clouds  
Wind Chill: 55°   Ceiling: 18000
Heat Index: 55°   Visibility: 10mi
Dew Point: 50°   Wind: 3mph
Humidity: 82%   Direction: 330°NNW
Pressure: 30.07"   Gusts: NA
Location:  32.15°N, 80.76°W
Report Text: KHXD 241250Z 33003KT 10SM BKN180 13/10 A3007
Loading
Personal Weather Stations






























Interactive Weather Map
Tropical Storm Tracking
New forecast layout! Learn more

10-Day Weather Forecast

Advertisements
Track Severe Weather on mobile